createdAt,value
2023-04-17T00:01:26.641Z,100.00
2023-04-17T00:03:53.486Z,100.00
2023-04-17T00:06:20.272Z,100.00
2023-04-17T00:08:46.959Z,100.00
2023-04-17T00:11:13.729Z,100.00
2023-04-17T00:13:43.188Z,100.00
2023-04-17T00:16:13.855Z,100.00
2023-04-17T00:18:40.821Z,100.00
2023-04-17T00:21:07.529Z,100.00
2023-04-17T00:23:34.122Z,100.00
2023-04-17T00:26:01.090Z,100.00
2023-04-17T00:28:27.756Z,100.00
2023-04-17T00:30:54.405Z,100.00
2023-04-17T00:33:21.138Z,100.00
2023-04-17T00:35:48.035Z,100.00
2023-04-17T00:38:14.799Z,100.00
2023-04-17T00:40:42.978Z,100.00
2023-04-17T00:43:09.752Z,100.00
2023-04-17T00:45:36.527Z,100.00
2023-04-17T00:48:04.950Z,100.00
2023-04-17T00:50:31.833Z,100.00
2023-04-17T00:52:58.876Z,100.00
2023-04-17T00:55:26.627Z,100.00
2023-04-17T00:57:53.294Z,100.00
2023-04-17T01:00:19.953Z,100.00
2023-04-17T01:02:46.980Z,100.00
2023-04-17T01:05:14.236Z,100.00
2023-04-17T01:07:41.648Z,100.00
2023-04-17T01:10:09.523Z,100.00
2023-04-17T01:12:36.672Z,100.00
2023-04-17T01:15:03.798Z,100.00
2023-04-17T01:17:31.286Z,100.00
2023-04-17T01:19:58.181Z,100.00
2023-04-17T01:22:24.799Z,100.00
2023-04-17T01:24:56.117Z,100.00
2023-04-17T01:27:25.199Z,100.00
2023-04-17T01:29:52.084Z,100.00
2023-04-17T01:32:20.011Z,100.00
2023-04-17T01:34:47.288Z,100.00
2023-04-17T01:37:14.118Z,100.00
2023-04-17T01:39:40.982Z,100.00
2023-04-17T01:42:07.711Z,100.00
2023-04-17T01:44:34.643Z,100.00
2023-04-17T01:47:01.386Z,100.00
2023-04-17T01:49:28.257Z,100.00
2023-04-17T01:51:55.023Z,100.00
2023-04-17T01:54:22.364Z,100.00
2023-04-17T01:56:49.111Z,100.00
2023-04-17T01:59:15.976Z,100.00
2023-04-17T02:01:42.892Z,100.00
2023-04-17T02:04:09.664Z,100.00
2023-04-17T02:06:36.654Z,100.00
2023-04-17T02:09:03.999Z,100.00
2023-04-17T02:11:30.623Z,100.00
2023-04-17T02:13:57.243Z,100.00
2023-04-17T02:16:23.970Z,100.00
2023-04-17T02:18:51.594Z,100.00
2023-04-17T02:21:18.394Z,100.00
2023-04-17T02:23:45.123Z,100.00
2023-04-17T02:26:11.779Z,100.00
2023-04-17T02:28:38.647Z,100.00
2023-04-17T02:31:09.029Z,100.00
2023-04-17T02:33:39.197Z,100.00
2023-04-17T02:36:07.531Z,100.00
2023-04-17T02:38:39.284Z,100.00
2023-04-17T02:41:06.574Z,100.00
2023-04-17T02:43:34.033Z,100.00
2023-04-17T02:46:01.493Z,100.00
2023-04-17T02:48:28.317Z,100.00
2023-04-17T02:50:55.174Z,100.00
2023-04-17T02:53:22.275Z,100.00
2023-04-17T02:55:49.593Z,100.00
2023-04-17T02:58:19.001Z,100.00
2023-04-17T03:00:46.008Z,100.00
2023-04-17T03:03:16.507Z,100.00
2023-04-17T03:05:43.503Z,100.00
2023-04-17T03:08:10.647Z,100.00
2023-04-17T03:10:48.617Z,100.00
2023-04-17T03:13:15.576Z,100.00
2023-04-17T03:15:42.330Z,100.00
2023-04-17T03:18:09.056Z,100.00
2023-04-17T03:20:36.138Z,100.00
2023-04-17T03:23:02.826Z,100.00
2023-04-17T03:25:29.481Z,100.00
2023-04-17T03:27:56.578Z,100.00
2023-04-17T03:30:31.371Z,100.00
2023-04-17T03:33:01.528Z,100.00
2023-04-17T03:35:30.082Z,100.00
2023-04-17T03:38:00.995Z,100.00
2023-04-17T03:40:27.915Z,100.00
2023-04-17T03:42:54.585Z,100.00
2023-04-17T03:45:21.584Z,100.00
2023-04-17T03:47:48.384Z,100.00
2023-04-17T03:50:15.507Z,100.00
2023-04-17T03:52:55.895Z,100.00
2023-04-17T03:55:25.101Z,100.00
2023-04-17T03:57:52.652Z,100.00
2023-04-17T04:00:21.856Z,100.00
2023-04-17T04:02:52.761Z,100.00
2023-04-17T04:05:24.662Z,100.00
2023-04-17T04:07:52.315Z,100.00
2023-04-17T04:10:29.373Z,100.00
2023-04-17T04:12:56.931Z,100.00
2023-04-17T04:15:24.673Z,100.00
2023-04-17T04:17:56.689Z,100.00
2023-04-17T04:20:23.646Z,100.00
2023-04-17T04:22:57.480Z,100.00
2023-04-17T04:25:24.623Z,100.00
2023-04-17T04:28:05.578Z,100.00
2023-04-17T04:30:35.874Z,100.00
2023-04-17T04:33:09.138Z,100.00
2023-04-17T04:35:37.256Z,100.00
2023-04-17T04:38:05.174Z,100.00
2023-04-17T04:40:38.354Z,100.00
2023-04-17T04:43:06.938Z,100.00
2023-04-17T04:45:40.972Z,100.00
2023-04-17T04:48:07.785Z,100.00
2023-04-17T04:50:34.486Z,100.00
2023-04-17T04:53:01.607Z,100.00
2023-04-17T04:55:43.218Z,100.00
2023-04-17T04:58:12.078Z,100.00
2023-04-17T05:00:39.414Z,100.00
2023-04-17T05:03:07.789Z,100.00
2023-04-17T05:05:35.938Z,100.00
2023-04-17T05:08:04.134Z,100.00
2023-04-17T05:10:34.219Z,100.00
2023-04-17T05:13:04.005Z,100.00
2023-04-17T05:15:31.816Z,100.00
2023-04-17T05:17:58.765Z,100.00
2023-04-17T05:20:27.734Z,100.00
2023-04-17T05:22:57.473Z,100.00
2023-04-17T05:25:24.364Z,100.00
2023-04-17T05:27:52.559Z,100.00
2023-04-17T05:30:19.525Z,100.00
2023-04-17T05:32:51.915Z,100.00
2023-04-17T05:35:41.584Z,100.00
2023-04-17T05:38:10.238Z,100.00
2023-04-17T05:40:37.097Z,100.00
2023-04-17T05:43:10.776Z,100.00
2023-04-17T05:45:38.646Z,100.00
2023-04-17T05:48:08.779Z,100.00
2023-04-17T05:50:37.573Z,100.00
2023-04-17T05:53:05.803Z,100.00
2023-04-17T05:55:37.505Z,100.00
2023-04-17T05:58:22.628Z,100.00
2023-04-17T06:00:51.921Z,100.00
2023-04-17T06:03:19.690Z,100.00
2023-04-17T06:05:50.090Z,100.00
2023-04-17T06:08:17.279Z,100.00
2023-04-17T06:10:45.893Z,100.00
2023-04-17T06:13:12.827Z,100.00
2023-04-17T06:15:43.686Z,100.00
2023-04-17T06:18:10.417Z,100.00
2023-04-17T06:20:39.416Z,100.00
2023-04-17T06:23:06.693Z,100.00
2023-04-17T06:25:33.498Z,100.00
2023-04-17T06:28:00.418Z,100.00
2023-04-17T06:30:27.826Z,100.00
2023-04-17T06:32:55.795Z,100.00
2023-04-17T06:35:22.565Z,100.00
2023-04-17T06:37:58.207Z,100.00
2023-04-17T06:40:24.973Z,100.00
2023-04-17T06:42:52.006Z,100.00
2023-04-17T06:45:20.686Z,100.00
2023-04-17T06:47:47.354Z,100.00
2023-04-17T06:50:17.148Z,100.00
2023-04-17T06:52:43.886Z,100.00
2023-04-17T06:55:10.879Z,100.00
2023-04-17T06:57:38.221Z,100.00
2023-04-17T07:00:05.975Z,100.00
2023-04-17T07:02:32.745Z,100.00
2023-04-17T07:04:59.511Z,100.00
2023-04-17T07:07:27.120Z,100.00
2023-04-17T07:09:53.697Z,100.00
2023-04-17T07:12:20.625Z,100.00
2023-04-17T07:14:47.238Z,100.00
2023-04-17T07:17:13.822Z,100.00
2023-04-17T07:19:40.537Z,100.00
2023-04-17T07:22:07.298Z,100.00
2023-04-17T07:24:35.064Z,100.00
2023-04-17T07:27:05.120Z,100.00
2023-04-17T07:29:31.728Z,100.00
2023-04-17T07:31:58.742Z,100.00
2023-04-17T07:34:25.726Z,100.00
2023-04-17T07:36:52.898Z,100.00
2023-04-17T07:39:19.925Z,100.00
2023-04-17T07:41:46.552Z,100.00
2023-04-17T07:44:14.137Z,100.00
2023-04-17T07:46:41.491Z,100.00
2023-04-17T07:49:11.459Z,100.00
2023-04-17T07:51:41.342Z,100.00
2023-04-17T07:54:09.065Z,100.00
2023-04-17T07:56:36.662Z,100.00
2023-04-17T07:59:03.639Z,100.00
2023-04-17T08:01:32.017Z,100.00
2023-04-17T08:03:59.110Z,100.00
2023-04-17T08:06:26.621Z,100.00
2023-04-17T08:08:53.316Z,100.00
2023-04-17T08:11:20.341Z,100.00
2023-04-17T08:13:46.955Z,100.00
2023-04-17T08:16:14.242Z,100.00
2023-04-17T08:18:42.045Z,100.00
2023-04-17T08:21:09.243Z,100.00
2023-04-17T08:23:36.672Z,100.00
2023-04-17T08:26:04.017Z,100.00
2023-04-17T08:28:30.975Z,100.00
2023-04-17T08:30:57.896Z,100.00
2023-04-17T08:33:24.584Z,100.00
2023-04-17T08:35:51.455Z,100.00
2023-04-17T08:38:18.605Z,100.00
2023-04-17T08:40:47.961Z,100.00
2023-04-17T08:43:21.175Z,100.00
2023-04-17T08:45:56.689Z,100.00
2023-04-17T08:48:24.840Z,100.00
2023-04-17T08:50:53.595Z,100.00
2023-04-17T08:53:21.090Z,100.00
2023-04-17T08:55:48.412Z,100.00
2023-04-17T08:58:15.962Z,100.00
2023-04-17T09:00:45.256Z,100.00
2023-04-17T09:03:13.155Z,100.00
2023-04-17T09:05:43.308Z,100.00
2023-04-17T09:08:20.811Z,100.00
2023-04-17T09:10:53.655Z,100.00
2023-04-17T09:13:24.335Z,100.00
2023-04-17T09:16:08.068Z,100.00
2023-04-17T09:18:35.763Z,100.00
2023-04-17T09:21:04.052Z,100.00
2023-04-17T09:23:32.385Z,99.91
2023-04-17T09:26:10.890Z,100.00
2023-04-17T09:28:41.366Z,99.34
2023-04-17T09:31:18.564Z,99.34
2023-04-17T09:34:04.269Z,98.33
2023-04-17T09:36:34.117Z,99.26
2023-04-17T09:39:07.206Z,99.76
2023-04-17T09:41:36.432Z,99.70
2023-04-17T09:44:05.491Z,98.25
2023-04-17T09:46:40.679Z,97.81
2023-04-17T09:49:15.639Z,96.52
2023-04-17T09:51:43.648Z,95.09
2023-04-17T09:54:12.252Z,96.12
2023-04-17T09:56:39.915Z,95.84
2023-04-17T09:59:07.291Z,95.06
2023-04-17T10:01:35.244Z,96.81
2023-04-17T10:04:03.853Z,96.47
2023-04-17T10:06:32.224Z,97.63
2023-04-17T10:08:58.947Z,95.19
2023-04-17T10:11:28.944Z,93.43
2023-04-17T10:14:11.643Z,95.95
2023-04-17T10:16:43.572Z,96.27
2023-04-17T10:19:32.541Z,96.66
2023-04-17T10:22:31.988Z,95.41
2023-04-17T10:25:14.929Z,94.39
2023-04-17T10:27:41.770Z,95.65
2023-04-17T10:30:12.660Z,95.38
2023-04-17T10:32:41.516Z,94.50
2023-04-17T10:35:17.272Z,95.25
2023-04-17T10:37:52.700Z,95.57
2023-04-17T10:40:22.042Z,95.58
2023-04-17T10:43:23.347Z,96.30
2023-04-17T10:45:54.342Z,96.39
2023-04-17T10:48:31.238Z,95.35
2023-04-17T10:50:58.040Z,96.76
2023-04-17T10:53:44.068Z,95.15
2023-04-17T10:56:12.595Z,93.91
2023-04-17T10:58:46.929Z,91.88
2023-04-17T11:01:13.620Z,90.69
2023-04-17T11:03:41.279Z,92.97
2023-04-17T11:06:08.148Z,90.48
2023-04-17T11:08:34.983Z,88.22
2023-04-17T11:11:02.824Z,87.92
2023-04-17T11:13:33.798Z,88.90
2023-04-17T11:16:00.510Z,89.18
2023-04-17T11:18:27.164Z,90.06
2023-04-17T11:20:53.776Z,89.78
2023-04-17T11:23:20.755Z,90.13
2023-04-17T11:25:47.459Z,88.71
2023-04-17T11:28:14.109Z,88.97
2023-04-17T11:30:44.358Z,88.70
2023-04-17T11:33:12.713Z,90.24
2023-04-17T11:35:41.228Z,90.07
2023-04-17T11:38:14.701Z,89.62
2023-04-17T11:40:46.094Z,90.77
2023-04-17T11:43:13.577Z,91.12
2023-04-17T11:45:42.186Z,91.24
2023-04-17T11:48:12.844Z,90.48
2023-04-17T11:50:42.921Z,89.99
2023-04-17T11:53:13.423Z,90.13
2023-04-17T11:55:40.329Z,88.40
2023-04-17T11:58:08.277Z,87.99
2023-04-17T12:00:37.576Z,87.64
2023-04-17T12:03:31.068Z,86.88
2023-04-17T12:06:03.741Z,85.53
2023-04-17T12:08:31.148Z,85.38
2023-04-17T12:10:58.353Z,85.52
2023-04-17T12:13:25.299Z,84.79
2023-04-17T12:15:51.954Z,83.26
2023-04-17T12:18:18.727Z,83.94
2023-04-17T12:20:45.568Z,86.33
2023-04-17T12:23:12.350Z,84.05
2023-04-17T12:25:39.329Z,82.17
2023-04-17T12:28:06.031Z,83.56
2023-04-17T12:30:35.945Z,84.33
2023-04-17T12:33:02.881Z,84.20
2023-04-17T12:35:30.017Z,84.42
2023-04-17T12:37:56.749Z,83.37
2023-04-17T12:40:25.335Z,82.57
2023-04-17T12:42:54.132Z,82.32
2023-04-17T12:45:20.852Z,82.59
2023-04-17T12:47:47.562Z,81.33
2023-04-17T12:50:14.256Z,82.02
2023-04-17T12:52:41.550Z,82.61
2023-04-17T12:55:09.281Z,82.29
2023-04-17T12:57:36.800Z,79.73
2023-04-17T13:00:09.182Z,79.78
2023-04-17T13:02:36.484Z,79.92
2023-04-17T13:05:04.917Z,78.35
2023-04-17T13:07:31.822Z,77.31
2023-04-17T13:09:58.716Z,78.35
2023-04-17T13:12:25.824Z,75.69
2023-04-17T13:14:52.919Z,74.36
2023-04-17T13:17:21.016Z,74.65
2023-04-17T13:19:47.707Z,75.90
2023-04-17T13:22:15.569Z,76.81
2023-04-17T13:24:43.754Z,76.38
2023-04-17T13:27:10.685Z,78.33
2023-04-17T13:29:37.363Z,74.97
2023-04-17T13:32:04.187Z,75.56
2023-04-17T13:34:30.882Z,76.48
2023-04-17T13:36:57.727Z,77.19
2023-04-17T13:39:24.492Z,75.43
2023-04-17T13:41:51.171Z,75.96
2023-04-17T13:44:18.741Z,76.54
2023-04-17T13:46:45.594Z,76.30
2023-04-17T13:49:12.458Z,78.44
2023-04-17T13:51:39.387Z,78.95
2023-04-17T13:54:06.722Z,79.95
2023-04-17T13:56:33.697Z,81.35
2023-04-17T13:59:00.470Z,82.25
2023-04-17T14:01:27.336Z,83.06
2023-04-17T14:03:54.320Z,82.28
2023-04-17T14:06:21.114Z,83.60
2023-04-17T14:08:48.560Z,82.41
2023-04-17T14:11:17.220Z,80.80
2023-04-17T14:13:43.875Z,80.47
2023-04-17T14:16:10.508Z,79.87
2023-04-17T14:18:37.638Z,80.32
2023-04-17T14:21:04.428Z,80.59
2023-04-17T14:23:31.189Z,81.11
2023-04-17T14:25:57.846Z,81.50
2023-04-17T14:28:25.095Z,80.65
2023-04-17T14:30:51.855Z,80.85
2023-04-17T14:33:18.518Z,80.10
2023-04-17T14:35:45.252Z,80.00
2023-04-17T14:38:11.990Z,79.42
2023-04-17T14:40:38.584Z,79.93
2023-04-17T14:43:05.281Z,78.39
2023-04-17T14:45:31.908Z,79.26
2023-04-17T14:47:58.912Z,77.43
2023-04-17T14:50:25.624Z,79.25
2023-04-17T14:52:52.223Z,79.40
2023-04-17T14:55:18.864Z,78.76
2023-04-17T14:57:45.568Z,79.96
2023-04-17T15:00:12.746Z,80.96
2023-04-17T15:02:39.602Z,80.96
2023-04-17T15:05:06.985Z,81.74
2023-04-17T15:07:33.711Z,81.74
2023-04-17T15:10:00.448Z,81.26
2023-04-17T15:12:27.936Z,82.06
2023-04-17T15:14:56.475Z,81.90
2023-04-17T15:17:23.502Z,80.33
2023-04-17T15:19:50.260Z,80.76
2023-04-17T15:22:16.997Z,78.91
2023-04-17T15:24:43.629Z,80.04
2023-04-17T15:27:10.382Z,80.23
2023-04-17T15:29:38.210Z,80.49
2023-04-17T15:32:05.002Z,80.83
2023-04-17T15:34:33.397Z,80.92
2023-04-17T15:37:00.123Z,82.14
2023-04-17T15:39:26.938Z,82.41
2023-04-17T15:41:54.888Z,82.09
2023-04-17T15:44:21.640Z,81.72
2023-04-17T15:46:48.283Z,81.43
2023-04-17T15:49:16.485Z,80.43
2023-04-17T15:51:43.183Z,80.51
2023-04-17T15:54:12.253Z,80.75
2023-04-17T15:56:39.648Z,80.43
2023-04-17T15:59:07.376Z,79.94
2023-04-17T16:01:34.043Z,80.00
2023-04-17T16:04:00.810Z,79.99
2023-04-17T16:06:27.762Z,80.58
2023-04-17T16:08:54.427Z,80.96
2023-04-17T16:11:21.059Z,81.95
2023-04-17T16:13:47.674Z,81.96
2023-04-17T16:16:14.468Z,82.20
2023-04-17T16:18:41.589Z,82.93
2023-04-17T16:21:11.603Z,83.69
2023-04-17T16:23:39.345Z,83.75
2023-04-17T16:26:06.767Z,84.20
2023-04-17T16:28:33.907Z,85.09
2023-04-17T16:31:00.872Z,85.97
2023-04-17T16:33:27.687Z,87.06
2023-04-17T16:35:54.511Z,88.21
2023-04-17T16:38:22.486Z,89.11
2023-04-17T16:40:49.159Z,89.50
2023-04-17T16:43:15.834Z,89.28
2023-04-17T16:45:42.548Z,90.50
2023-04-17T16:48:11.371Z,90.90
2023-04-17T16:50:39.776Z,91.01
2023-04-17T16:53:06.515Z,92.52
2023-04-17T16:55:33.221Z,93.72
2023-04-17T16:58:00.881Z,95.24
2023-04-17T17:00:27.893Z,95.29
2023-04-17T17:02:55.169Z,95.20
2023-04-17T17:05:22.465Z,95.93
2023-04-17T17:07:49.228Z,96.59
2023-04-17T17:10:15.950Z,96.78
2023-04-17T17:12:42.833Z,97.28
2023-04-17T17:15:10.470Z,97.92
2023-04-17T17:17:37.209Z,98.80
2023-04-17T17:20:04.239Z,98.66
2023-04-17T17:22:31.024Z,99.10
2023-04-17T17:24:57.909Z,100.00
2023-04-17T17:27:25.797Z,100.00
2023-04-17T17:29:56.950Z,100.00
2023-04-17T17:32:28.170Z,100.00
2023-04-17T17:34:58.271Z,100.00
2023-04-17T17:37:25.748Z,100.00
2023-04-17T17:39:52.960Z,100.00
2023-04-17T17:42:20.473Z,100.00
2023-04-17T17:44:47.646Z,100.00
2023-04-17T17:47:16.618Z,100.00
2023-04-17T17:49:49.115Z,100.00
2023-04-17T17:52:17.794Z,100.00
2023-04-17T17:54:48.730Z,100.00
2023-04-17T17:57:16.274Z,100.00
2023-04-17T17:59:45.914Z,100.00
2023-04-17T18:02:14.285Z,100.00
2023-04-17T18:04:42.764Z,100.00
2023-04-17T18:07:09.892Z,100.00
2023-04-17T18:09:36.760Z,100.00
2023-04-17T18:12:13.090Z,100.00
2023-04-17T18:14:43.403Z,100.00
2023-04-17T18:17:20.378Z,100.00
2023-04-17T18:19:53.595Z,100.00
2023-04-17T18:22:21.898Z,100.00
2023-04-17T18:24:48.869Z,100.00
2023-04-17T18:27:16.298Z,100.00
2023-04-17T18:29:45.412Z,100.00
2023-04-17T18:32:14.191Z,100.00
2023-04-17T18:34:43.541Z,100.00
2023-04-17T18:39:56.925Z,100.00
2023-04-17T18:42:27.522Z,100.00
2023-04-17T18:45:14.509Z,100.00
2023-04-17T18:47:47.838Z,100.00
2023-04-17T18:50:29.757Z,100.00
2023-04-17T18:52:56.508Z,100.00
2023-04-17T18:55:24.499Z,100.00
2023-04-17T18:57:52.159Z,100.00
2023-04-17T19:00:18.770Z,100.00
2023-04-17T19:02:45.588Z,100.00
2023-04-17T19:05:12.915Z,100.00
2023-04-17T19:07:39.605Z,100.00
2023-04-17T19:10:06.868Z,100.00
2023-04-17T19:12:33.727Z,100.00
2023-04-17T19:15:00.385Z,100.00
2023-04-17T19:17:27.000Z,100.00
2023-04-17T19:19:56.606Z,100.00
2023-04-17T19:22:26.244Z,100.00
2023-04-17T19:24:53.075Z,100.00
2023-04-17T19:27:23.784Z,100.00
2023-04-17T19:29:51.229Z,100.00
2023-04-17T19:32:18.294Z,100.00
2023-04-17T19:34:46.507Z,100.00
2023-04-17T19:37:13.254Z,100.00
2023-04-17T19:39:40.107Z,100.00
2023-04-17T19:42:06.857Z,100.00
2023-04-17T19:44:33.654Z,100.00
2023-04-17T19:47:00.569Z,100.00
2023-04-17T19:49:27.510Z,100.00
2023-04-17T19:51:54.257Z,100.00
2023-04-17T19:54:21.222Z,100.00
2023-04-17T19:56:48.015Z,100.00
2023-04-17T19:59:15.123Z,100.00
2023-04-17T20:01:43.750Z,100.00
2023-04-17T20:04:10.954Z,100.00
2023-04-17T20:06:39.475Z,100.00
2023-04-17T20:09:06.336Z,100.00
2023-04-17T20:11:32.946Z,100.00
2023-04-17T20:13:59.618Z,100.00
2023-04-17T20:16:26.396Z,100.00
2023-04-17T20:18:53.169Z,100.00
2023-04-17T20:21:21.386Z,100.00
2023-04-17T20:23:48.700Z,100.00
2023-04-17T20:26:15.464Z,100.00
2023-04-17T20:28:42.129Z,100.00
2023-04-17T20:31:20.874Z,100.00
2023-04-17T20:33:50.545Z,100.00
2023-04-17T20:36:18.866Z,100.00
2023-04-17T20:38:46.113Z,100.00
2023-04-17T20:41:12.875Z,100.00
2023-04-17T20:43:39.845Z,100.00
2023-04-17T20:46:08.084Z,100.00
2023-04-17T20:48:34.960Z,100.00
2023-04-17T20:51:02.875Z,100.00
2023-04-17T20:53:29.726Z,100.00
2023-04-17T20:55:57.905Z,100.00
2023-04-17T20:58:24.813Z,100.00
2023-04-17T21:01:00.738Z,100.00
2023-04-17T21:03:30.919Z,100.00
2023-04-17T21:05:57.777Z,100.00
2023-04-17T21:08:24.858Z,100.00
2023-04-17T21:10:59.359Z,100.00
2023-04-17T21:13:26.586Z,100.00
2023-04-17T21:15:53.569Z,100.00
2023-04-17T21:18:20.321Z,100.00
2023-04-17T21:20:47.333Z,100.00
2023-04-17T21:23:14.815Z,100.00
2023-04-17T21:25:41.777Z,100.00
2023-04-17T21:28:08.838Z,100.00
2023-04-17T21:30:36.439Z,100.00
2023-04-17T21:33:04.023Z,100.00
2023-04-17T21:35:30.845Z,100.00
2023-04-17T21:37:58.082Z,100.00
2023-04-17T21:40:32.680Z,100.00
2023-04-17T21:43:01.105Z,100.00
2023-04-17T21:45:29.122Z,100.00
2023-04-17T21:47:56.061Z,100.00
2023-04-17T21:50:23.580Z,100.00
2023-04-17T21:52:50.500Z,100.00
2023-04-17T21:55:17.227Z,100.00
2023-04-17T21:57:44.890Z,100.00
2023-04-17T22:00:12.651Z,100.00
2023-04-17T22:02:39.558Z,100.00
2023-04-17T22:05:06.676Z,100.00
2023-04-17T22:07:38.193Z,100.00
2023-04-17T22:10:14.552Z,100.00
2023-04-17T22:12:41.397Z,100.00
2023-04-17T22:15:08.932Z,100.00
2023-04-17T22:17:35.723Z,100.00
2023-04-17T22:20:02.535Z,100.00
2023-04-17T22:22:29.292Z,100.00
2023-04-17T22:24:57.542Z,100.00
2023-04-17T22:27:24.191Z,100.00
2023-04-17T22:29:51.044Z,100.00
2023-04-17T22:32:17.864Z,100.00
2023-04-17T22:34:48.940Z,100.00
2023-04-17T22:37:16.045Z,100.00
2023-04-17T22:39:42.886Z,100.00
2023-04-17T22:42:11.192Z,100.00
2023-04-17T22:44:38.000Z,100.00
2023-04-17T22:47:04.846Z,100.00
2023-04-17T22:49:32.599Z,100.00
2023-04-17T22:51:59.283Z,100.00
2023-04-17T22:54:29.584Z,100.00
2023-04-17T22:56:56.216Z,100.00
2023-04-17T22:59:22.881Z,100.00
2023-04-17T23:01:49.610Z,100.00
2023-04-17T23:04:16.573Z,100.00
2023-04-17T23:06:43.348Z,100.00
2023-04-17T23:09:10.420Z,100.00
2023-04-17T23:11:38.749Z,100.00
2023-04-17T23:14:05.697Z,100.00
2023-04-17T23:16:32.868Z,100.00
2023-04-17T23:19:00.851Z,100.00
2023-04-17T23:21:27.962Z,100.00
2023-04-17T23:23:55.384Z,100.00
2023-04-17T23:26:22.611Z,100.00
2023-04-17T23:28:49.512Z,100.00
2023-04-17T23:31:16.481Z,100.00
2023-04-17T23:33:43.448Z,100.00
2023-04-17T23:36:11.453Z,100.00
2023-04-17T23:38:39.795Z,100.00
2023-04-17T23:41:08.191Z,100.00
2023-04-17T23:43:35.212Z,100.00
2023-04-17T23:46:02.090Z,100.00
2023-04-17T23:48:29.061Z,100.00
2023-04-17T23:50:56.009Z,100.00
2023-04-17T23:53:22.896Z,100.00
2023-04-17T23:55:49.730Z,100.00
2023-04-17T23:58:17.789Z,100.00
